<?xml version='1.0' encoding='UTF-8'?><gpx version="1.1" creator="JPX - https://github.com/jenetics/jpx" xmlns="http://www.topografix.com/GPX/1/1"><trk><trkseg><trkpt lat="39.0715331" lon="16.2845458"><ele>529.0</ele><time>2026-04-29T19:33:07.984Z</time></trkpt><trkpt lat="39.0715106" lon="16.2846334"><ele>529.0</ele><time>2026-04-29T19:33:11.984Z</time></trkpt><trkpt lat="39.0715052" lon="16.2847279"><ele>529.0</ele><time>2026-04-29T19:33:16.984Z</time></trkpt><trkpt lat="39.0715043" lon="16.2848123"><ele>529.0</ele><time>2026-04-29T19:33:21.985Z</time></trkpt><trkpt lat="39.0715192" lon="16.2848943"><ele>529.0</ele><time>2026-04-29T19:33:26.984Z</time></trkpt><trkpt lat="39.0714988" lon="16.284991"><ele>529.0</ele><time>2026-04-29T19:33:31.985Z</time></trkpt><trkpt lat="39.0714773" lon="16.2850701"><ele>529.0</ele><time>2026-04-29T19:33:36.984Z</time></trkpt><trkpt lat="39.0714594" lon="16.2851608"><ele>531.7142857142858</ele><time>2026-04-29T19:33:43.984Z</time></trkpt><trkpt lat="39.0714341" lon="16.2852353"><ele>534.4285714285714</ele><time>2026-04-29T19:33:46.985Z</time></trkpt><trkpt lat="39.0714158" lon="16.2853226"><ele>537.1428571428571</ele><time>2026-04-29T19:33:51.902Z</time></trkpt><trkpt lat="39.0713951" lon="16.2854104"><ele>539.8571428571429</ele><time>2026-04-29T19:33:56.759Z</time></trkpt><trkpt lat="39.0713411" lon="16.2854739"><ele>542.5714285714286</ele><time>2026-04-29T19:34:00.721Z</time></trkpt><trkpt lat="39.0712794" lon="16.2855252"><ele>545.2857142857143</ele><time>2026-04-29T19:34:04.984Z</time></trkpt><trkpt lat="39.0712133" lon="16.2855738"><ele>548.0</ele><time>2026-04-29T19:34:09.984Z</time></trkpt><trkpt lat="39.0711479" lon="16.2856067"><ele>545.4285714285714</ele><time>2026-04-29T19:34:14.984Z</time></trkpt><trkpt lat="39.0710836" lon="16.2856481"><ele>542.8571428571429</ele><time>2026-04-29T19:34:20.188Z</time></trkpt><trkpt lat="39.0710127" lon="16.2856822"><ele>540.2857142857142</ele><time>2026-04-29T19:34:26.207Z</time></trkpt><trkpt lat="39.0709485" lon="16.2857211"><ele>537.7142857142858</ele><time>2026-04-29T19:34:31.089Z</time></trkpt><trkpt lat="39.0708847" lon="16.2857461"><ele>535.1428571428571</ele><time>2026-04-29T19:34:36.016Z</time></trkpt><trkpt lat="39.0708216" lon="16.2857685"><ele>532.5714285714286</ele><time>2026-04-29T19:34:40.983Z</time></trkpt><trkpt lat="39.0707565" lon="16.2858088"><ele>530.0</ele><time>2026-04-29T19:34:45.983Z</time></trkpt><trkpt lat="39.0706959" lon="16.2858453"><ele>529.9999999999999</ele><time>2026-04-29T19:34:50.983Z</time></trkpt><trkpt lat="39.0706435" lon="16.2858923"><ele>530.0</ele><time>2026-04-29T19:34:55.984Z</time></trkpt><trkpt lat="39.0705809" lon="16.2859398"><ele>530.0</ele><time>2026-04-29T19:35:01.983Z</time></trkpt><trkpt lat="39.0705453" lon="16.2860341"><ele>530.0</ele><time>2026-04-29T19:35:07.502Z</time></trkpt><trkpt lat="39.0705375" lon="16.2861146"><ele>530.0</ele><time>2026-04-29T19:35:10.983Z</time></trkpt><trkpt lat="39.0705526" lon="16.2862088"><ele>529.9999999999999</ele><time>2026-04-29T19:35:14.983Z</time></trkpt><trkpt lat="39.0705503" lon="16.2863071"><ele>530.0</ele><time>2026-04-29T19:35:19.983Z</time></trkpt><trkpt lat="39.0705376" lon="16.2863943"><ele>532.1428571428571</ele><time>2026-04-29T19:35:24.984Z</time></trkpt><trkpt lat="39.0705328" lon="16.2864831"><ele>534.2857142857142</ele><time>2026-04-29T19:35:29.987Z</time></trkpt><trkpt lat="39.0705282" lon="16.2865763"><ele>536.4285714285714</ele><time>2026-04-29T19:35:34.983Z</time></trkpt><trkpt lat="39.0705198" lon="16.2866666"><ele>538.5714285714286</ele><time>2026-04-29T19:35:39.983Z</time></trkpt><trkpt lat="39.0705132" lon="16.2867478"><ele>540.7142857142858</ele><time>2026-04-29T19:35:43.983Z</time></trkpt><trkpt lat="39.0705006" lon="16.2868434"><ele>542.8571428571429</ele><time>2026-04-29T19:35:48.849Z</time></trkpt><trkpt lat="39.0705028" lon="16.2869419"><ele>545.0</ele><time>2026-04-29T19:35:53.983Z</time></trkpt><trkpt lat="39.0705064" lon="16.2870387"><ele>545.0</ele><time>2026-04-29T19:35:58.983Z</time></trkpt><trkpt lat="39.0704981" lon="16.2871319"><ele>545.0</ele><time>2026-04-29T19:36:03.941Z</time></trkpt><trkpt lat="39.0704838" lon="16.2872272"><ele>545.0</ele><time>2026-04-29T19:36:08.903Z</time></trkpt><trkpt lat="39.0704671" lon="16.2873193"><ele>545.0</ele><time>2026-04-29T19:36:13.685Z</time></trkpt><trkpt lat="39.0704521" lon="16.2874207"><ele>545.0</ele><time>2026-04-29T19:36:18.865Z</time></trkpt><trkpt lat="39.0704357" lon="16.2875067"><ele>545.0</ele><time>2026-04-29T19:36:23.846Z</time></trkpt><trkpt lat="39.0704341" lon="16.2876001"><ele>545.0</ele><time>2026-04-29T19:36:28.685Z</time></trkpt><trkpt lat="39.0704439" lon="16.2876984"><ele>546.6666666666666</ele><time>2026-04-29T19:36:33.506Z</time></trkpt><trkpt lat="39.0704703" lon="16.2877932"><ele>548.3333333333333</ele><time>2026-04-29T19:36:38.407Z</time></trkpt><trkpt lat="39.0704991" lon="16.2878859"><ele>550.0</ele><time>2026-04-29T19:36:43.983Z</time></trkpt><trkpt lat="39.0705696" lon="16.2879279"><ele>551.6666666666666</ele><time>2026-04-29T19:36:48.983Z</time></trkpt><trkpt lat="39.0706369" lon="16.2879776"><ele>553.3333333333334</ele><time>2026-04-29T19:36:53.885Z</time></trkpt><trkpt lat="39.0706722" lon="16.2880583"><ele>555.0</ele><time>2026-04-29T19:36:57.809Z</time></trkpt><trkpt lat="39.0707098" lon="16.2881389"><ele>555.0000000000001</ele><time>2026-04-29T19:37:02.579Z</time></trkpt><trkpt lat="39.0707545" lon="16.2882175"><ele>555.0</ele><time>2026-04-29T19:37:07.468Z</time></trkpt><trkpt lat="39.0708027" lon="16.2882954"><ele>555.0</ele><time>2026-04-29T19:37:12.303Z</time></trkpt><trkpt lat="39.0708583" lon="16.2883628"><ele>555.0</ele><time>2026-04-29T19:37:17.113Z</time></trkpt><trkpt lat="39.0708909" lon="16.2884485"><ele>555.0</ele><time>2026-04-29T19:37:21.941Z</time></trkpt><trkpt lat="39.0708621" lon="16.2885278"><ele>555.0000000000001</ele><time>2026-04-29T19:37:25.983Z</time></trkpt><trkpt lat="39.0708134" lon="16.2885854"><ele>555.0</ele><time>2026-04-29T19:37:29.983Z</time></trkpt><trkpt lat="39.0707522" lon="16.2886083"><ele>555.0000000000001</ele><time>2026-04-29T19:37:33.983Z</time></trkpt><trkpt lat="39.0706858" lon="16.2886"><ele>555.0</ele><time>2026-04-29T19:37:37.941Z</time></trkpt><trkpt lat="39.0706165" lon="16.2885887"><ele>555.0</ele><time>2026-04-29T19:37:41.984Z</time></trkpt><trkpt lat="39.0705486" lon="16.2885907"><ele>555.0</ele><time>2026-04-29T19:37:45.989Z</time></trkpt><trkpt lat="39.0704859" lon="16.2886001"><ele>555.0</ele><time>2026-04-29T19:37:49.789Z</time></trkpt><trkpt lat="39.0704138" lon="16.2886012"><ele>555.0000000000001</ele><time>2026-04-29T19:37:54.56Z</time></trkpt><trkpt lat="39.0703416" lon="16.2886171"><ele>555.0</ele><time>2026-04-29T19:37:59.34Z</time></trkpt><trkpt lat="39.0702818" lon="16.2886739"><ele>555.0000000000001</ele><time>2026-04-29T19:38:04.226Z</time></trkpt><trkpt lat="39.0702299" lon="16.2887459"><ele>555.0</ele><time>2026-04-29T19:38:08.988Z</time></trkpt><trkpt lat="39.0701739" lon="16.2888147"><ele>555.0</ele><time>2026-04-29T19:38:13.882Z</time></trkpt><trkpt lat="39.0701288" lon="16.2888866"><ele>555.0</ele><time>2026-04-29T19:38:18.721Z</time></trkpt><trkpt lat="39.0700869" lon="16.2889673"><ele>555.0</ele><time>2026-04-29T19:38:23.483Z</time></trkpt><trkpt lat="39.0700594" lon="16.2890576"><ele>555.0000000000001</ele><time>2026-04-29T19:38:28.32Z</time></trkpt><trkpt lat="39.0700291" lon="16.2891424"><ele>555.0</ele><time>2026-04-29T19:38:33.12Z</time></trkpt><trkpt lat="39.0699755" lon="16.2891931"><ele>553.5714285714287</ele><time>2026-04-29T19:38:37.866Z</time></trkpt><trkpt lat="39.0699119" lon="16.2892049"><ele>552.1428571428571</ele><time>2026-04-29T19:38:42.645Z</time></trkpt><trkpt lat="39.0698381" lon="16.2892245"><ele>550.7142857142858</ele><time>2026-04-29T19:38:47.52Z</time></trkpt><trkpt lat="39.0697687" lon="16.2892521"><ele>549.2857142857143</ele><time>2026-04-29T19:38:51.966Z</time></trkpt><trkpt lat="39.0697044" lon="16.289298"><ele>547.8571428571429</ele><time>2026-04-29T19:38:56.825Z</time></trkpt><trkpt lat="39.0696475" lon="16.2893501"><ele>546.4285714285714</ele><time>2026-04-29T19:39:01.662Z</time></trkpt><trkpt lat="39.069595" lon="16.2894154"><ele>545.0</ele><time>2026-04-29T19:39:06.824Z</time></trkpt><trkpt lat="39.0695488" lon="16.2894845"><ele>545.0</ele><time>2026-04-29T19:39:11.7Z</time></trkpt><trkpt lat="39.0695219" lon="16.289574"><ele>545.0</ele><time>2026-04-29T19:39:16.624Z</time></trkpt><trkpt lat="39.069499" lon="16.2896624"><ele>545.0</ele><time>2026-04-29T19:39:21.528Z</time></trkpt><trkpt lat="39.0694718" lon="16.2897494"><ele>545.0</ele><time>2026-04-29T19:39:26.423Z</time></trkpt><trkpt lat="39.0694396" lon="16.2898363"><ele>545.0</ele><time>2026-04-29T19:39:31.349Z</time></trkpt><trkpt lat="39.0694135" lon="16.2899261"><ele>545.0</ele><time>2026-04-29T19:39:36.263Z</time></trkpt><trkpt lat="39.0693777" lon="16.2900086"><ele>545.0</ele><time>2026-04-29T19:39:41.203Z</time></trkpt><trkpt lat="39.0693191" lon="16.2900586"><ele>543.2857142857143</ele><time>2026-04-29T19:39:46.185Z</time></trkpt><trkpt lat="39.0692666" lon="16.2901187"><ele>541.5714285714287</ele><time>2026-04-29T19:39:50.983Z</time></trkpt><trkpt lat="39.0692158" lon="16.2901845"><ele>539.8571428571429</ele><time>2026-04-29T19:39:55.907Z</time></trkpt><trkpt lat="39.0691623" lon="16.2902417"><ele>538.1428571428571</ele><time>2026-04-29T19:40:00.908Z</time></trkpt><trkpt lat="39.0691099" lon="16.2903061"><ele>536.4285714285713</ele><time>2026-04-29T19:40:05.84Z</time></trkpt><trkpt lat="39.0690609" lon="16.2903744"><ele>534.7142857142857</ele><time>2026-04-29T19:40:10.66Z</time></trkpt><trkpt lat="39.0690071" lon="16.2904351"><ele>533.0</ele><time>2026-04-29T19:40:15.582Z</time></trkpt><trkpt lat="39.0689675" lon="16.2905075"><ele>533.0</ele><time>2026-04-29T19:40:20.469Z</time></trkpt><trkpt lat="39.0689211" lon="16.2905779"><ele>533.0</ele><time>2026-04-29T19:40:25.22Z</time></trkpt><trkpt lat="39.0688565" lon="16.2906314"><ele>533.0</ele><time>2026-04-29T19:40:30.944Z</time></trkpt><trkpt lat="39.0688055" lon="16.2906959"><ele>533.0</ele><time>2026-04-29T19:40:34.983Z</time></trkpt><trkpt lat="39.0687679" lon="16.2907799"><ele>533.0</ele><time>2026-04-29T19:40:39.781Z</time></trkpt><trkpt lat="39.0687351" lon="16.2908653"><ele>533.0</ele><time>2026-04-29T19:40:44.62Z</time></trkpt><trkpt lat="39.0687077" lon="16.2909515"><ele>533.0</ele><time>2026-04-29T19:40:49.524Z</time></trkpt><trkpt lat="39.0686806" lon="16.2910379"><ele>535.7142857142857</ele><time>2026-04-29T19:40:54.381Z</time></trkpt><trkpt lat="39.0686427" lon="16.2911247"><ele>538.4285714285713</ele><time>2026-04-29T19:40:59.227Z</time></trkpt><trkpt lat="39.0686134" lon="16.2912103"><ele>541.1428571428571</ele><time>2026-04-29T19:41:04.046Z</time></trkpt><trkpt lat="39.0685858" lon="16.2912927"><ele>543.8571428571429</ele><time>2026-04-29T19:41:08.8Z</time></trkpt><trkpt lat="39.0685706" lon="16.2913846"><ele>546.5714285714287</ele><time>2026-04-29T19:41:13.704Z</time></trkpt><trkpt lat="39.0685563" lon="16.2914736"><ele>549.2857142857143</ele><time>2026-04-29T19:41:18.445Z</time></trkpt><trkpt lat="39.068525" lon="16.2915592"><ele>552.0</ele><time>2026-04-29T19:41:23.226Z</time></trkpt><trkpt lat="39.068496" lon="16.2916512"><ele>555.8571428571429</ele><time>2026-04-29T19:41:28.045Z</time></trkpt><trkpt lat="39.0684643" lon="16.2917413"><ele>559.7142857142858</ele><time>2026-04-29T19:41:32.882Z</time></trkpt><trkpt lat="39.068427" lon="16.2918159"><ele>563.5714285714286</ele><time>2026-04-29T19:41:37.789Z</time></trkpt><trkpt lat="39.0683946" lon="16.2918989"><ele>567.4285714285714</ele><time>2026-04-29T19:41:42.648Z</time></trkpt><trkpt lat="39.0683614" lon="16.2919759"><ele>571.2857142857142</ele><time>2026-04-29T19:41:47.483Z</time></trkpt><trkpt lat="39.0683289" lon="16.2920598"><ele>575.1428571428571</ele><time>2026-04-29T19:41:52.264Z</time></trkpt><trkpt lat="39.0683078" lon="16.2921525"><ele>579.0</ele><time>2026-04-29T19:41:57.206Z</time></trkpt><trkpt lat="39.0682863" lon="16.2922347"><ele>576.5714285714286</ele><time>2026-04-29T19:42:01.586Z</time></trkpt><trkpt lat="39.06826" lon="16.2923208"><ele>574.1428571428571</ele><time>2026-04-29T19:42:06.481Z</time></trkpt><trkpt lat="39.0682327" lon="16.2924109"><ele>571.7142857142858</ele><time>2026-04-29T19:42:11.386Z</time></trkpt><trkpt lat="39.0682112" lon="16.2924894"><ele>569.2857142857142</ele><time>2026-04-29T19:42:15.805Z</time></trkpt><trkpt lat="39.0681877" lon="16.292572"><ele>566.8571428571429</ele><time>2026-04-29T19:42:20.748Z</time></trkpt><trkpt lat="39.0681635" lon="16.2926604"><ele>564.4285714285714</ele><time>2026-04-29T19:42:25.661Z</time></trkpt><trkpt lat="39.068137" lon="16.2927465"><ele>562.0</ele><time>2026-04-29T19:42:30.53Z</time></trkpt><trkpt lat="39.0681075" lon="16.2928358"><ele>562.0000000000001</ele><time>2026-04-29T19:42:35.422Z</time></trkpt><trkpt lat="39.0680829" lon="16.2929131"><ele>562.0</ele><time>2026-04-29T19:42:39.983Z</time></trkpt><trkpt lat="39.06807" lon="16.2930032"><ele>562.0</ele><time>2026-04-29T19:42:44.983Z</time></trkpt><trkpt lat="39.0680469" lon="16.2930986"><ele>562.0</ele><time>2026-04-29T19:42:49.984Z</time></trkpt><trkpt lat="39.0680233" lon="16.2931749"><ele>562.0</ele><time>2026-04-29T19:42:54.964Z</time></trkpt><trkpt lat="39.0679959" lon="16.293259"><ele>562.0000000000001</ele><time>2026-04-29T19:42:58.841Z</time></trkpt><trkpt lat="39.067966" lon="16.2933476"><ele>562.0</ele><time>2026-04-29T19:43:03.983Z</time></trkpt><trkpt lat="39.0679476" lon="16.2934279"><ele>563.8571428571429</ele><time>2026-04-29T19:43:08.984Z</time></trkpt><trkpt lat="39.0679185" lon="16.2935129"><ele>565.7142857142858</ele><time>2026-04-29T19:43:13.984Z</time></trkpt><trkpt lat="39.0679008" lon="16.2936038"><ele>567.5714285714286</ele><time>2026-04-29T19:43:18.984Z</time></trkpt><trkpt lat="39.0679546" lon="16.2935569"><ele>569.4285714285714</ele><time>2026-04-29T19:43:24.948Z</time></trkpt><trkpt lat="39.0679795" lon="16.2934684"><ele>571.2857142857142</ele><time>2026-04-29T19:43:30.929Z</time></trkpt><trkpt lat="39.0679902" lon="16.2933804"><ele>573.1428571428571</ele><time>2026-04-29T19:43:34.983Z</time></trkpt><trkpt lat="39.0680139" lon="16.2932987"><ele>575.0</ele><time>2026-04-29T19:43:38.984Z</time></trkpt><trkpt lat="39.0680411" lon="16.2932185"><ele>575.0</ele><time>2026-04-29T19:43:42.983Z</time></trkpt><trkpt lat="39.0680607" lon="16.2931384"><ele>575.0</ele><time>2026-04-29T19:43:46.983Z</time></trkpt><trkpt lat="39.0680869" lon="16.2930624"><ele>575.0</ele><time>2026-04-29T19:43:50.984Z</time></trkpt><trkpt lat="39.068118" lon="16.2929732"><ele>575.0</ele><time>2026-04-29T19:43:55.984Z</time></trkpt><trkpt lat="39.0681298" lon="16.292883"><ele>575.0</ele><time>2026-04-29T19:44:00.984Z</time></trkpt><trkpt lat="39.0681515" lon="16.2927945"><ele>575.0</ele><time>2026-04-29T19:44:06.027Z</time></trkpt><trkpt lat="39.0681806" lon="16.2927089"><ele>575.0</ele><time>2026-04-29T19:44:10.984Z</time></trkpt><trkpt lat="39.0682045" lon="16.2926226"><ele>575.6666666666666</ele><time>2026-04-29T19:44:15.983Z</time></trkpt><trkpt lat="39.0682292" lon="16.2925318"><ele>576.3333333333333</ele><time>2026-04-29T19:44:20.983Z</time></trkpt><trkpt lat="39.0682393" lon="16.2924362"><ele>577.0</ele><time>2026-04-29T19:44:25.902Z</time></trkpt><trkpt lat="39.0682705" lon="16.2923456"><ele>577.6666666666666</ele><time>2026-04-29T19:44:30.983Z</time></trkpt><trkpt lat="39.0682921" lon="16.2922507"><ele>578.3333333333334</ele><time>2026-04-29T19:44:35.983Z</time></trkpt><trkpt lat="39.0683095" lon="16.2921526"><ele>579.0</ele><time>2026-04-29T19:44:40.983Z</time></trkpt><trkpt lat="39.0683448" lon="16.2920658"><ele>578.9999999999999</ele><time>2026-04-29T19:44:45.983Z</time></trkpt><trkpt lat="39.068372" lon="16.2919786"><ele>579.0</ele><time>2026-04-29T19:44:50.94Z</time></trkpt><trkpt lat="39.0683993" lon="16.2919023"><ele>579.0</ele><time>2026-04-29T19:44:54.983Z</time></trkpt><trkpt lat="39.06841" lon="16.2918181"><ele>579.0</ele><time>2026-04-29T19:44:58.983Z</time></trkpt><trkpt lat="39.0684466" lon="16.2917422"><ele>579.0</ele><time>2026-04-29T19:45:02.984Z</time></trkpt><trkpt lat="39.0684856" lon="16.2916707"><ele>578.9999999999999</ele><time>2026-04-29T19:45:06.983Z</time></trkpt><trkpt lat="39.0685213" lon="16.2915962"><ele>579.0</ele><time>2026-04-29T19:45:10.983Z</time></trkpt><trkpt lat="39.0685524" lon="16.2915218"><ele>578.9999999999999</ele><time>2026-04-29T19:45:14.901Z</time></trkpt><trkpt lat="39.0685768" lon="16.2914469"><ele>579.0</ele><time>2026-04-29T19:45:18.728Z</time></trkpt><trkpt lat="39.0686107" lon="16.2913719"><ele>579.0</ele><time>2026-04-29T19:45:22.553Z</time></trkpt><trkpt lat="39.0686389" lon="16.2912877"><ele>579.0</ele><time>2026-04-29T19:45:26.983Z</time></trkpt><trkpt lat="39.0686599" lon="16.2911981"><ele>579.0</ele><time>2026-04-29T19:45:31.983Z</time></trkpt><trkpt lat="39.0686714" lon="16.2911175"><ele>578.9999999999999</ele><time>2026-04-29T19:45:35.879Z</time></trkpt><trkpt lat="39.0686874" lon="16.2910255"><ele>579.0</ele><time>2026-04-29T19:45:40.603Z</time></trkpt><trkpt lat="39.0687153" lon="16.2909396"><ele>574.5</ele><time>2026-04-29T19:45:45.241Z</time></trkpt><trkpt lat="39.0687491" lon="16.2908525"><ele>570.0</ele><time>2026-04-29T19:45:49.983Z</time></trkpt><trkpt lat="39.0687977" lon="16.2907779"><ele>565.5</ele><time>2026-04-29T19:45:54.64Z</time></trkpt><trkpt lat="39.0688508" lon="16.2907074"><ele>561.0</ele><time>2026-04-29T19:45:59.383Z</time></trkpt><trkpt lat="39.0689053" lon="16.2906367"><ele>556.5</ele><time>2026-04-29T19:46:04.086Z</time></trkpt><trkpt lat="39.0689609" lon="16.2905714"><ele>552.0</ele><time>2026-04-29T19:46:08.801Z</time></trkpt><trkpt lat="39.0690182" lon="16.2905038"><ele>549.2857142857143</ele><time>2026-04-29T19:46:13.544Z</time></trkpt><trkpt lat="39.0690699" lon="16.2904363"><ele>546.5714285714287</ele><time>2026-04-29T19:46:18.362Z</time></trkpt><trkpt lat="39.0691246" lon="16.2903718"><ele>543.8571428571429</ele><time>2026-04-29T19:46:23.142Z</time></trkpt><trkpt lat="39.0691781" lon="16.290305"><ele>541.1428571428571</ele><time>2026-04-29T19:46:27.866Z</time></trkpt><trkpt lat="39.0692195" lon="16.2902395"><ele>538.4285714285713</ele><time>2026-04-29T19:46:31.685Z</time></trkpt><trkpt lat="39.0692676" lon="16.2901847"><ele>535.7142857142857</ele><time>2026-04-29T19:46:35.58Z</time></trkpt><trkpt lat="39.0693181" lon="16.2901336"><ele>533.0</ele><time>2026-04-29T19:46:40.361Z</time></trkpt><trkpt lat="39.0693631" lon="16.2900719"><ele>534.7142857142857</ele><time>2026-04-29T19:46:45.208Z</time></trkpt><trkpt lat="39.0694175" lon="16.2900022"><ele>536.4285714285713</ele><time>2026-04-29T19:46:49.99Z</time></trkpt><trkpt lat="39.0694562" lon="16.289916"><ele>538.1428571428571</ele><time>2026-04-29T19:46:54.808Z</time></trkpt><trkpt lat="39.0694831" lon="16.2898276"><ele>539.8571428571429</ele><time>2026-04-29T19:46:59.54Z</time></trkpt><trkpt lat="39.0695059" lon="16.2897358"><ele>541.5714285714287</ele><time>2026-04-29T19:47:04.339Z</time></trkpt><trkpt lat="39.0695321" lon="16.2896415"><ele>543.2857142857143</ele><time>2026-04-29T19:47:09.104Z</time></trkpt><trkpt lat="39.069559" lon="16.2895624"><ele>545.0</ele><time>2026-04-29T19:47:12.92Z</time></trkpt><trkpt lat="39.0695909" lon="16.2894917"><ele>545.0</ele><time>2026-04-29T19:47:16.719Z</time></trkpt><trkpt lat="39.0696526" lon="16.2894456"><ele>545.0</ele><time>2026-04-29T19:47:20.919Z</time></trkpt><trkpt lat="39.0697153" lon="16.289434"><ele>545.0</ele><time>2026-04-29T19:47:24.983Z</time></trkpt><trkpt lat="39.0697839" lon="16.2894255"><ele>545.0</ele><time>2026-04-29T19:47:29.983Z</time></trkpt><trkpt lat="39.0698546" lon="16.2894343"><ele>545.0</ele><time>2026-04-29T19:47:34.949Z</time></trkpt><trkpt lat="39.0699211" lon="16.2894634"><ele>545.0</ele><time>2026-04-29T19:47:39.983Z</time></trkpt><trkpt lat="39.0699702" lon="16.2895178"><ele>545.0</ele><time>2026-04-29T19:47:43.86Z</time></trkpt><trkpt lat="39.0700272" lon="16.2895717"><ele>549.1428571428571</ele><time>2026-04-29T19:47:49.766Z</time></trkpt><trkpt lat="39.0700938" lon="16.2895658"><ele>553.2857142857143</ele><time>2026-04-29T19:47:53.984Z</time></trkpt><trkpt lat="39.0701462" lon="16.2895166"><ele>557.4285714285714</ele><time>2026-04-29T19:47:58.016Z</time></trkpt><trkpt lat="39.0701878" lon="16.289453"><ele>561.5714285714286</ele><time>2026-04-29T19:48:01.965Z</time></trkpt><trkpt lat="39.070233" lon="16.2893678"><ele>565.7142857142858</ele><time>2026-04-29T19:48:06.963Z</time></trkpt><trkpt lat="39.0702814" lon="16.2893015"><ele>569.8571428571429</ele><time>2026-04-29T19:48:10.983Z</time></trkpt><trkpt lat="39.0703324" lon="16.2892389"><ele>574.0</ele><time>2026-04-29T19:48:15.983Z</time></trkpt><trkpt lat="39.0703826" lon="16.2891788"><ele>574.0</ele><time>2026-04-29T19:48:20.983Z</time></trkpt><trkpt lat="39.0704395" lon="16.289128"><ele>574.0</ele><time>2026-04-29T19:48:25.983Z</time></trkpt><trkpt lat="39.0704932" lon="16.2890731"><ele>574.0</ele><time>2026-04-29T19:48:30.983Z</time></trkpt><trkpt lat="39.0705548" lon="16.2890212"><ele>574.0</ele><time>2026-04-29T19:48:36.983Z</time></trkpt><trkpt lat="39.0706114" lon="16.2889821"><ele>574.0</ele><time>2026-04-29T19:48:41.892Z</time></trkpt><trkpt lat="39.0706751" lon="16.2889663"><ele>574.0</ele><time>2026-04-29T19:48:46.983Z</time></trkpt><trkpt lat="39.0707453" lon="16.2889679"><ele>574.0</ele><time>2026-04-29T19:48:52Z</time></trkpt><trkpt lat="39.0708096" lon="16.2889766"><ele>574.8571428571429</ele><time>2026-04-29T19:48:56.983Z</time></trkpt><trkpt lat="39.0708747" lon="16.2890081"><ele>575.7142857142858</ele><time>2026-04-29T19:49:02.984Z</time></trkpt><trkpt lat="39.0709381" lon="16.2890364"><ele>576.5714285714286</ele><time>2026-04-29T19:49:07.983Z</time></trkpt><trkpt lat="39.0710126" lon="16.2890535"><ele>577.4285714285714</ele><time>2026-04-29T19:49:12.984Z</time></trkpt><trkpt lat="39.0710877" lon="16.2890557"><ele>578.2857142857143</ele><time>2026-04-29T19:49:17.983Z</time></trkpt><trkpt lat="39.0711319" lon="16.2889869"><ele>579.1428571428571</ele><time>2026-04-29T19:49:21.94Z</time></trkpt><trkpt lat="39.0711483" lon="16.2888957"><ele>580.0</ele><time>2026-04-29T19:49:25.96Z</time></trkpt><trkpt lat="39.0711578" lon="16.2888118"><ele>580.0</ele><time>2026-04-29T19:49:29.921Z</time></trkpt><trkpt lat="39.0711672" lon="16.2887255"><ele>580.0</ele><time>2026-04-29T19:49:33.887Z</time></trkpt><trkpt lat="39.0711657" lon="16.2886245"><ele>580.0</ele><time>2026-04-29T19:49:38.919Z</time></trkpt><trkpt lat="39.0711485" lon="16.2885301"><ele>580.0</ele><time>2026-04-29T19:49:43.983Z</time></trkpt><trkpt lat="39.0711446" lon="16.2884317"><ele>580.0</ele><time>2026-04-29T19:49:48.984Z</time></trkpt><trkpt lat="39.0711386" lon="16.288336"><ele>580.0</ele><time>2026-04-29T19:49:53.983Z</time></trkpt><trkpt lat="39.071119" lon="16.2882457"><ele>580.0</ele><time>2026-04-29T19:49:58.983Z</time></trkpt><trkpt lat="39.0710968" lon="16.2881575"><ele>580.4285714285714</ele><time>2026-04-29T19:50:03.983Z</time></trkpt><trkpt lat="39.0710786" lon="16.2880629"><ele>580.8571428571429</ele><time>2026-04-29T19:50:08.929Z</time></trkpt><trkpt lat="39.0710666" lon="16.2879674"><ele>581.2857142857143</ele><time>2026-04-29T19:50:13.842Z</time></trkpt><trkpt lat="39.0710607" lon="16.2878861"><ele>581.7142857142858</ele><time>2026-04-29T19:50:17.746Z</time></trkpt><trkpt lat="39.0710501" lon="16.2877898"><ele>582.1428571428571</ele><time>2026-04-29T19:50:22.622Z</time></trkpt><trkpt lat="39.0710588" lon="16.2876951"><ele>582.5714285714287</ele><time>2026-04-29T19:50:27.507Z</time></trkpt><trkpt lat="39.0710719" lon="16.2876151"><ele>583.0</ele><time>2026-04-29T19:50:31.421Z</time></trkpt><trkpt lat="39.0710959" lon="16.2875232"><ele>583.0000000000001</ele><time>2026-04-29T19:50:36.325Z</time></trkpt><trkpt lat="39.0711173" lon="16.2874305"><ele>583.0</ele><time>2026-04-29T19:50:41.287Z</time></trkpt><trkpt lat="39.0711372" lon="16.287336"><ele>583.0</ele><time>2026-04-29T19:50:46.325Z</time></trkpt><trkpt lat="39.0711576" lon="16.2872483"><ele>583.0</ele><time>2026-04-29T19:50:51.162Z</time></trkpt><trkpt lat="39.0711724" lon="16.2871545"><ele>583.0</ele><time>2026-04-29T19:50:55.983Z</time></trkpt><trkpt lat="39.071188" lon="16.2870596"><ele>583.0000000000001</ele><time>2026-04-29T19:51:00.962Z</time></trkpt><trkpt lat="39.0711944" lon="16.2869691"><ele>583.0</ele><time>2026-04-29T19:51:05.78Z</time></trkpt><trkpt lat="39.0711981" lon="16.2868729"><ele>582.1666666666667</ele><time>2026-04-29T19:51:10.628Z</time></trkpt><trkpt lat="39.0712" lon="16.2867743"><ele>581.3333333333334</ele><time>2026-04-29T19:51:15.466Z</time></trkpt><trkpt lat="39.0711982" lon="16.2866743"><ele>580.5</ele><time>2026-04-29T19:51:20.446Z</time></trkpt><trkpt lat="39.0712038" lon="16.2865832"><ele>579.6666666666666</ele><time>2026-04-29T19:51:24.903Z</time></trkpt><trkpt lat="39.0712276" lon="16.2864885"><ele>578.8333333333333</ele><time>2026-04-29T19:51:29.983Z</time></trkpt><trkpt lat="39.0712783" lon="16.286417"><ele>578.0</ele><time>2026-04-29T19:51:34.983Z</time></trkpt><trkpt lat="39.0713344" lon="16.2863488"><ele>576.7142857142858</ele><time>2026-04-29T19:51:40.012Z</time></trkpt><trkpt lat="39.0713894" lon="16.2862858"><ele>575.4285714285714</ele><time>2026-04-29T19:51:44.969Z</time></trkpt><trkpt lat="39.0714497" lon="16.2862323"><ele>574.1428571428571</ele><time>2026-04-29T19:51:49.987Z</time></trkpt><trkpt lat="39.0715138" lon="16.2861733"><ele>572.8571428571429</ele><time>2026-04-29T19:51:54.967Z</time></trkpt><trkpt lat="39.0715728" lon="16.2861165"><ele>571.5714285714286</ele><time>2026-04-29T19:52:00.01Z</time></trkpt><trkpt lat="39.0716259" lon="16.2860558"><ele>570.2857142857143</ele><time>2026-04-29T19:52:04.967Z</time></trkpt><trkpt lat="39.0716696" lon="16.285996"><ele>569.0</ele><time>2026-04-29T19:52:09.023Z</time></trkpt><trkpt lat="39.0717129" lon="16.2859149"><ele>570.5714285714287</ele><time>2026-04-29T19:52:14.983Z</time></trkpt><trkpt lat="39.0717543" lon="16.2858417"><ele>572.1428571428571</ele><time>2026-04-29T19:52:19.983Z</time></trkpt><trkpt lat="39.0718066" lon="16.2857899"><ele>573.7142857142858</ele><time>2026-04-29T19:52:23.983Z</time></trkpt><trkpt lat="39.0718506" lon="16.285727"><ele>575.2857142857143</ele><time>2026-04-29T19:52:27.985Z</time></trkpt><trkpt lat="39.0718754" lon="16.285648"><ele>576.8571428571429</ele><time>2026-04-29T19:52:31.985Z</time></trkpt><trkpt lat="39.0718924" lon="16.2855681"><ele>578.4285714285714</ele><time>2026-04-29T19:52:36.138Z</time></trkpt><trkpt lat="39.0719106" lon="16.2854721"><ele>580.0</ele><time>2026-04-29T19:52:41.024Z</time></trkpt><trkpt lat="39.071921" lon="16.2853905"><ele>580.0</ele><time>2026-04-29T19:52:44.862Z</time></trkpt><trkpt lat="39.0719405" lon="16.2853119"><ele>580.0</ele><time>2026-04-29T19:52:48.86Z</time></trkpt><trkpt lat="39.0719753" lon="16.2852423"><ele>580.0</ele><time>2026-04-29T19:52:52.983Z</time></trkpt><trkpt lat="39.0720136" lon="16.2851629"><ele>580.0</ele><time>2026-04-29T19:52:58.307Z</time></trkpt><trkpt lat="39.0720438" lon="16.2850866"><ele>580.0</ele><time>2026-04-29T19:53:02.162Z</time></trkpt><trkpt lat="39.072071" lon="16.2850034"><ele>580.0</ele><time>2026-04-29T19:53:06.091Z</time></trkpt><trkpt lat="39.0721194" lon="16.2849267"><ele>580.0</ele><time>2026-04-29T19:53:10.886Z</time></trkpt><trkpt lat="39.0721968" lon="16.2849067"><ele>580.0</ele><time>2026-04-29T19:53:14.742Z</time></trkpt><trkpt lat="39.072258" lon="16.2848774"><ele>580.0</ele><time>2026-04-29T19:53:19.054Z</time></trkpt><trkpt lat="39.0723215" lon="16.2848859"><ele>580.0</ele><time>2026-04-29T19:53:22.867Z</time></trkpt><trkpt lat="39.0723674" lon="16.2849482"><ele>580.0</ele><time>2026-04-29T19:53:27.428Z</time></trkpt><trkpt lat="39.07243" lon="16.2850025"><ele>580.0</ele><time>2026-04-29T19:53:32.246Z</time></trkpt><trkpt lat="39.0724901" lon="16.2850441"><ele>580.0</ele><time>2026-04-29T19:53:37.066Z</time></trkpt><trkpt lat="39.0725421" lon="16.2851177"><ele>580.0</ele><time>2026-04-29T19:53:42.131Z</time></trkpt><trkpt lat="39.072553" lon="16.2852057"><ele>581.2857142857143</ele><time>2026-04-29T19:53:46.102Z</time></trkpt><trkpt lat="39.0725684" lon="16.2852869"><ele>582.5714285714287</ele><time>2026-04-29T19:53:50.014Z</time></trkpt><trkpt lat="39.0725975" lon="16.2853716"><ele>583.8571428571429</ele><time>2026-04-29T19:53:55.019Z</time></trkpt><trkpt lat="39.0726315" lon="16.2854536"><ele>585.1428571428571</ele><time>2026-04-29T19:53:59.983Z</time></trkpt><trkpt lat="39.0726723" lon="16.2855323"><ele>586.4285714285713</ele><time>2026-04-29T19:54:04.983Z</time></trkpt><trkpt lat="39.072725" lon="16.2856061"><ele>587.7142857142857</ele><time>2026-04-29T19:54:09.983Z</time></trkpt><trkpt lat="39.0727621" lon="16.285693"><ele>589.0</ele><time>2026-04-29T19:54:14.827Z</time></trkpt><trkpt lat="39.0728023" lon="16.2857611"><ele>591.0</ele><time>2026-04-29T19:54:18.985Z</time></trkpt><trkpt lat="39.0728205" lon="16.2858523"><ele>593.0</ele><time>2026-04-29T19:54:23.825Z</time></trkpt><trkpt lat="39.0728179" lon="16.2859492"><ele>595.0</ele><time>2026-04-29T19:54:28.547Z</time></trkpt><trkpt lat="39.0728219" lon="16.2860397"><ele>597.0</ele><time>2026-04-29T19:54:33.081Z</time></trkpt><trkpt lat="39.0728658" lon="16.2861267"><ele>599.0</ele><time>2026-04-29T19:54:38.068Z</time></trkpt><trkpt lat="39.0729426" lon="16.2861352"><ele>601.0</ele><time>2026-04-29T19:54:41.984Z</time></trkpt><trkpt lat="39.0730215" lon="16.2860995"><ele>601.0</ele><time>2026-04-29T19:54:45.984Z</time></trkpt><trkpt lat="39.0730591" lon="16.2860304"><ele>601.0</ele><time>2026-04-29T19:54:49.077Z</time></trkpt><trkpt lat="39.0730793" lon="16.2859274"><ele>601.0</ele><time>2026-04-29T19:54:52.983Z</time></trkpt><trkpt lat="39.0731059" lon="16.2858321"><ele>601.0</ele><time>2026-04-29T19:54:57.24Z</time></trkpt><trkpt lat="39.0731444" lon="16.2857597"><ele>601.0</ele><time>2026-04-29T19:55:01.061Z</time></trkpt><trkpt lat="39.0731915" lon="16.2857018"><ele>601.0</ele><time>2026-04-29T19:55:04.924Z</time></trkpt><trkpt lat="39.0732412" lon="16.2856311"><ele>601.0</ele><time>2026-04-29T19:55:09.983Z</time></trkpt><trkpt lat="39.0732888" lon="16.285559"><ele>599.2857142857142</ele><time>2026-04-29T19:55:14.983Z</time></trkpt><trkpt lat="39.0733263" lon="16.2854793"><ele>597.5714285714287</ele><time>2026-04-29T19:55:19.983Z</time></trkpt><trkpt lat="39.0733539" lon="16.2853898"><ele>595.8571428571429</ele><time>2026-04-29T19:55:24.828Z</time></trkpt><trkpt lat="39.0733727" lon="16.2852966"><ele>594.1428571428571</ele><time>2026-04-29T19:55:29.627Z</time></trkpt><trkpt lat="39.0733894" lon="16.2852173"><ele>592.4285714285713</ele><time>2026-04-29T19:55:33.922Z</time></trkpt><trkpt lat="39.0734149" lon="16.2851319"><ele>590.7142857142857</ele><time>2026-04-29T19:55:38.788Z</time></trkpt><trkpt lat="39.0734464" lon="16.2850491"><ele>589.0</ele><time>2026-04-29T19:55:43.607Z</time></trkpt><trkpt lat="39.0734804" lon="16.2849511"><ele>589.0</ele><time>2026-04-29T19:55:48.983Z</time></trkpt><trkpt lat="39.0735166" lon="16.2848809"><ele>589.0</ele><time>2026-04-29T19:55:52.902Z</time></trkpt><trkpt lat="39.0735575" lon="16.2848186"><ele>589.0</ele><time>2026-04-29T19:55:56.806Z</time></trkpt><trkpt lat="39.0736119" lon="16.2847537"><ele>589.0</ele><time>2026-04-29T19:56:01.644Z</time></trkpt><trkpt lat="39.0736592" lon="16.284695"><ele>589.0</ele><time>2026-04-29T19:56:05.969Z</time></trkpt><trkpt lat="39.0737163" lon="16.2846321"><ele>589.0</ele><time>2026-04-29T19:56:10.768Z</time></trkpt><trkpt lat="39.0737817" lon="16.2845772"><ele>589.0</ele><time>2026-04-29T19:56:15.747Z</time></trkpt><trkpt lat="39.073843" lon="16.2845478"><ele>589.8571428571429</ele><time>2026-04-29T19:56:19.966Z</time></trkpt><trkpt lat="39.0739043" lon="16.284505"><ele>590.7142857142857</ele><time>2026-04-29T19:56:25.011Z</time></trkpt><trkpt lat="39.0739597" lon="16.2844654"><ele>591.5714285714286</ele><time>2026-04-29T19:56:29.982Z</time></trkpt><trkpt lat="39.0740259" lon="16.2844376"><ele>592.4285714285714</ele><time>2026-04-29T19:56:34.982Z</time></trkpt><trkpt lat="39.0740888" lon="16.2843857"><ele>593.2857142857142</ele><time>2026-04-29T19:56:39.983Z</time></trkpt><trkpt lat="39.0741388" lon="16.2843361"><ele>594.1428571428571</ele><time>2026-04-29T19:56:43.982Z</time></trkpt><trkpt lat="39.074207" lon="16.2842817"><ele>595.0</ele><time>2026-04-29T19:56:47.982Z</time></trkpt><trkpt lat="39.0742613" lon="16.2842176"><ele>595.0</ele><time>2026-04-29T19:56:53.016Z</time></trkpt><trkpt lat="39.0743358" lon="16.2841854"><ele>595.0</ele><time>2026-04-29T19:56:58.982Z</time></trkpt><trkpt lat="39.074412" lon="16.2841728"><ele>595.0</ele><time>2026-04-29T19:57:03.862Z</time></trkpt><trkpt lat="39.0744826" lon="16.2841877"><ele>595.0</ele><time>2026-04-29T19:57:07.886Z</time></trkpt><trkpt lat="39.0745497" lon="16.2841676"><ele>595.0</ele><time>2026-04-29T19:57:13.01Z</time></trkpt><trkpt lat="39.0744857" lon="16.2841367"><ele>595.0</ele><time>2026-04-29T19:57:15.982Z</time></trkpt><trkpt lat="39.0744151" lon="16.2841682"><ele>595.0</ele><time>2026-04-29T19:57:24.983Z</time></trkpt><trkpt lat="39.0743516" lon="16.2842041"><ele>595.0</ele><time>2026-04-29T19:57:28.982Z</time></trkpt><trkpt lat="39.0742927" lon="16.284233"><ele>595.0</ele><time>2026-04-29T19:57:32.982Z</time></trkpt><trkpt lat="39.074239" lon="16.2842784"><ele>595.0</ele><time>2026-04-29T19:57:37.025Z</time></trkpt><trkpt lat="39.0741787" lon="16.2843363"><ele>595.0</ele><time>2026-04-29T19:57:41.881Z</time></trkpt><trkpt lat="39.0741216" lon="16.2843786"><ele>595.0</ele><time>2026-04-29T19:57:45.982Z</time></trkpt><trkpt lat="39.0740582" lon="16.2844291"><ele>595.0</ele><time>2026-04-29T19:57:50.92Z</time></trkpt><trkpt lat="39.0740017" lon="16.2844651"><ele>595.0</ele><time>2026-04-29T19:57:54.9Z</time></trkpt><trkpt lat="39.0739373" lon="16.2844954"><ele>594.0</ele><time>2026-04-29T19:57:59.347Z</time></trkpt><trkpt lat="39.0738628" lon="16.2845372"><ele>593.0</ele><time>2026-04-29T19:58:04.081Z</time></trkpt><trkpt lat="39.0737955" lon="16.28457"><ele>592.0</ele><time>2026-04-29T19:58:08.086Z</time></trkpt><trkpt lat="39.0737218" lon="16.2845546"><ele>591.0</ele><time>2026-04-29T19:58:13.029Z</time></trkpt><trkpt lat="39.0736721" lon="16.2846446"><ele>590.0</ele><time>2026-04-29T19:58:16.982Z</time></trkpt><trkpt lat="39.0736113" lon="16.2846875"><ele>589.0</ele><time>2026-04-29T19:58:20.984Z</time></trkpt><trkpt lat="39.0735717" lon="16.284783"><ele>589.0</ele><time>2026-04-29T19:58:25.004Z</time></trkpt><trkpt lat="39.0735345" lon="16.2848627"><ele>589.0</ele><time>2026-04-29T19:58:28.982Z</time></trkpt><trkpt lat="39.073494" lon="16.2849373"><ele>589.0</ele><time>2026-04-29T19:58:32.888Z</time></trkpt><trkpt lat="39.0734628" lon="16.2850171"><ele>589.0</ele><time>2026-04-29T19:58:36.965Z</time></trkpt><trkpt lat="39.0734304" lon="16.285087"><ele>589.0</ele><time>2026-04-29T19:58:40.982Z</time></trkpt><trkpt lat="39.0734024" lon="16.2851622"><ele>589.0</ele><time>2026-04-29T19:58:44.983Z</time></trkpt><trkpt lat="39.0733856" lon="16.2852459"><ele>589.0</ele><time>2026-04-29T19:58:48.905Z</time></trkpt><trkpt lat="39.0733732" lon="16.2853291"><ele>589.0</ele><time>2026-04-29T19:58:52.984Z</time></trkpt><trkpt lat="39.0733567" lon="16.285431"><ele>589.0</ele><time>2026-04-29T19:58:58.089Z</time></trkpt><trkpt lat="39.0733177" lon="16.2855274"><ele>589.0</ele><time>2026-04-29T19:59:03.427Z</time></trkpt><trkpt lat="39.0732695" lon="16.2856114"><ele>589.0</ele><time>2026-04-29T19:59:08.072Z</time></trkpt><trkpt lat="39.0732205" lon="16.2856847"><ele>589.0</ele><time>2026-04-29T19:59:12.484Z</time></trkpt><trkpt lat="39.0731814" lon="16.2857552"><ele>589.0</ele><time>2026-04-29T19:59:16.982Z</time></trkpt><trkpt lat="39.0731417" lon="16.2858427"><ele>590.7142857142857</ele><time>2026-04-29T19:59:22.011Z</time></trkpt><trkpt lat="39.0731038" lon="16.2859106"><ele>592.4285714285713</ele><time>2026-04-29T19:59:25.982Z</time></trkpt><trkpt lat="39.073057" lon="16.2859798"><ele>594.1428571428571</ele><time>2026-04-29T19:59:30.982Z</time></trkpt><trkpt lat="39.0730274" lon="16.2860573"><ele>595.8571428571429</ele><time>2026-04-29T19:59:34.957Z</time></trkpt><trkpt lat="39.0729725" lon="16.2861095"><ele>597.5714285714287</ele><time>2026-04-29T19:59:38.982Z</time></trkpt><trkpt lat="39.0728998" lon="16.2861033"><ele>599.2857142857142</ele><time>2026-04-29T19:59:42.982Z</time></trkpt><trkpt lat="39.0728589" lon="16.2860266"><ele>601.0</ele><time>2026-04-29T19:59:46.983Z</time></trkpt><trkpt lat="39.0728567" lon="16.2859343"><ele>601.0</ele><time>2026-04-29T19:59:50.982Z</time></trkpt><trkpt lat="39.0728568" lon="16.2858467"><ele>601.0</ele><time>2026-04-29T19:59:54.982Z</time></trkpt><trkpt lat="39.0728493" lon="16.2857652"><ele>601.0</ele><time>2026-04-29T19:59:58.982Z</time></trkpt><trkpt lat="39.0728388" lon="16.2856714"><ele>601.0</ele><time>2026-04-29T20:00:03.982Z</time></trkpt><trkpt lat="39.072832" lon="16.2855817"><ele>601.0</ele><time>2026-04-29T20:00:08.982Z</time></trkpt><trkpt lat="39.072828" lon="16.285491"><ele>601.0</ele><time>2026-04-29T20:00:13.982Z</time></trkpt><trkpt lat="39.0728279" lon="16.285404"><ele>601.0</ele><time>2026-04-29T20:00:18.982Z</time></trkpt><trkpt lat="39.072808" lon="16.2853135"><ele>599.2857142857142</ele><time>2026-04-29T20:00:23.982Z</time></trkpt><trkpt lat="39.072792" lon="16.2852205"><ele>597.5714285714287</ele><time>2026-04-29T20:00:28.982Z</time></trkpt><trkpt lat="39.0727752" lon="16.2851248"><ele>595.8571428571429</ele><time>2026-04-29T20:00:33.982Z</time></trkpt><trkpt lat="39.0727531" lon="16.2850467"><ele>594.1428571428571</ele><time>2026-04-29T20:00:37.983Z</time></trkpt><trkpt lat="39.072718" lon="16.2849749"><ele>592.4285714285713</ele><time>2026-04-29T20:00:41.982Z</time></trkpt><trkpt lat="39.0726865" lon="16.2848874"><ele>590.7142857142857</ele><time>2026-04-29T20:00:46.982Z</time></trkpt><trkpt lat="39.0726743" lon="16.2848057"><ele>589.0</ele><time>2026-04-29T20:00:50.982Z</time></trkpt><trkpt lat="39.0726645" lon="16.2847246"><ele>586.4285714285714</ele><time>2026-04-29T20:00:54.982Z</time></trkpt><trkpt lat="39.0726576" lon="16.284644"><ele>583.8571428571428</ele><time>2026-04-29T20:00:58.982Z</time></trkpt><trkpt lat="39.0726199" lon="16.2845589"><ele>581.2857142857142</ele><time>2026-04-29T20:01:03.982Z</time></trkpt><trkpt lat="39.0725749" lon="16.2844851"><ele>578.7142857142857</ele><time>2026-04-29T20:01:08.94Z</time></trkpt><trkpt lat="39.0725546" lon="16.284402"><ele>576.1428571428571</ele><time>2026-04-29T20:01:12.902Z</time></trkpt><trkpt lat="39.0725271" lon="16.2843087"><ele>573.5714285714286</ele><time>2026-04-29T20:01:17.778Z</time></trkpt><trkpt lat="39.0724954" lon="16.2842214"><ele>571.0</ele><time>2026-04-29T20:01:22.843Z</time></trkpt><trkpt lat="39.0724469" lon="16.2841445"><ele>571.1428571428571</ele><time>2026-04-29T20:01:27.643Z</time></trkpt><trkpt lat="39.0724155" lon="16.284061"><ele>571.2857142857142</ele><time>2026-04-29T20:01:32.557Z</time></trkpt><trkpt lat="39.0723819" lon="16.2839775"><ele>571.4285714285713</ele><time>2026-04-29T20:01:37.5Z</time></trkpt><trkpt lat="39.0723342" lon="16.2839041"><ele>571.5714285714286</ele><time>2026-04-29T20:01:42.442Z</time></trkpt><trkpt lat="39.0722793" lon="16.2838628"><ele>571.7142857142857</ele><time>2026-04-29T20:01:46.367Z</time></trkpt><trkpt lat="39.0722097" lon="16.2838356"><ele>571.8571428571428</ele><time>2026-04-29T20:01:50.918Z</time></trkpt><trkpt lat="39.0721328" lon="16.2838446"><ele>572.0</ele><time>2026-04-29T20:01:55.983Z</time></trkpt><trkpt lat="39.0720586" lon="16.2838527"><ele>571.9999999999999</ele><time>2026-04-29T20:02:00.964Z</time></trkpt><trkpt lat="39.0720089" lon="16.2839025"><ele>572.0</ele><time>2026-04-29T20:02:04.946Z</time></trkpt><trkpt lat="39.0719587" lon="16.2839706"><ele>572.0</ele><time>2026-04-29T20:02:08.982Z</time></trkpt><trkpt lat="39.0718949" lon="16.2840158"><ele>572.0</ele><time>2026-04-29T20:02:13.001Z</time></trkpt><trkpt lat="39.0718345" lon="16.2840595"><ele>572.0</ele><time>2026-04-29T20:02:17.982Z</time></trkpt><trkpt lat="39.0717853" lon="16.2841128"><ele>571.9999999999999</ele><time>2026-04-29T20:02:23.983Z</time></trkpt><trkpt lat="39.0717397" lon="16.2841896"><ele>572.0</ele><time>2026-04-29T20:02:29.928Z</time></trkpt><trkpt lat="39.0716945" lon="16.2842639"><ele>572.0</ele><time>2026-04-29T20:02:35.982Z</time></trkpt><trkpt lat="39.0716352" lon="16.2843123"><ele>572.0</ele><time>2026-04-29T20:02:40.982Z</time></trkpt><trkpt lat="39.0715774" lon="16.2843595"><ele>529.0</ele><time>2026-04-29T20:02:45.982Z</time></trkpt></trkseg></trk></gpx>